createdAt,value
2018-08-06T00:01:09.288Z,1.17
2018-08-06T00:03:45.696Z,1.03
2018-08-06T00:06:22.239Z,0.97
2018-08-06T00:08:59.456Z,0.93
2018-08-06T00:11:35.784Z,1.00
2018-08-06T00:14:12.479Z,1.37
2018-08-06T00:16:49.051Z,0.87
2018-08-06T00:19:25.491Z,1.27
2018-08-06T00:22:02.008Z,0.80
2018-08-06T00:24:38.375Z,0.93
2018-08-06T00:27:14.735Z,0.97
2018-08-06T00:29:51.124Z,0.87
2018-08-06T00:32:27.687Z,1.10
2018-08-06T00:35:04.403Z,1.20
2018-08-06T00:37:41.134Z,0.97
2018-08-06T00:40:21.403Z,1.20
2018-08-06T00:42:57.892Z,1.40
2018-08-06T00:45:34.352Z,0.93
2018-08-06T00:48:10.631Z,0.93
2018-08-06T00:50:47.114Z,1.40
2018-08-06T00:53:23.596Z,0.90
2018-08-06T00:55:59.884Z,1.20
2018-08-06T00:58:36.339Z,0.87
2018-08-06T01:01:12.802Z,0.87
2018-08-06T01:03:49.156Z,1.07
2018-08-06T01:06:25.728Z,1.10
2018-08-06T01:09:02.114Z,1.30
2018-08-06T01:11:39.050Z,0.90
2018-08-06T01:14:15.473Z,1.00
2018-08-06T01:16:52.383Z,0.80
2018-08-06T01:19:28.639Z,1.30
2018-08-06T01:22:05.151Z,0.90
2018-08-06T01:24:41.549Z,2.13
2018-08-06T01:27:18.119Z,1.10
2018-08-06T01:29:54.378Z,1.17
2018-08-06T01:32:30.699Z,1.10
2018-08-06T01:35:08.008Z,1.47
2018-08-06T01:37:44.482Z,0.70
2018-08-06T01:40:21.076Z,0.93
2018-08-06T01:42:57.523Z,1.33
2018-08-06T01:45:33.888Z,1.13
2018-08-06T01:48:10.342Z,1.13
2018-08-06T01:50:46.889Z,1.27
2018-08-06T01:53:23.217Z,1.20
2018-08-06T01:55:59.680Z,1.23
2018-08-06T01:58:36.100Z,0.90
2018-08-06T02:01:12.583Z,0.93
2018-08-06T02:03:49.188Z,0.80
2018-08-06T02:06:25.672Z,1.20
2018-08-06T02:09:02.668Z,1.00
2018-08-06T02:11:39.016Z,1.43
2018-08-06T02:14:15.395Z,1.37
2018-08-06T02:16:51.899Z,1.23
2018-08-06T02:19:28.372Z,1.23
2018-08-06T02:22:04.624Z,1.20
2018-08-06T02:24:41.092Z,1.30
2018-08-06T02:27:17.497Z,1.13
2018-08-06T02:29:53.826Z,1.60
2018-08-06T02:32:30.333Z,0.90
2018-08-06T02:35:08.524Z,1.40
2018-08-06T02:37:45.044Z,1.27
2018-08-06T02:40:22.484Z,1.10
2018-08-06T02:42:58.856Z,1.53
2018-08-06T02:45:36.809Z,1.00
2018-08-06T02:48:14.538Z,1.27
2018-08-06T02:50:51.560Z,0.97
2018-08-06T02:53:29.183Z,1.23
2018-08-06T02:56:05.856Z,1.10
2018-08-06T02:58:42.238Z,1.40
2018-08-06T03:01:18.693Z,1.63
2018-08-06T03:04:00.741Z,1.07
2018-08-06T03:06:37.042Z,1.30
2018-08-06T03:09:13.778Z,1.30
2018-08-06T03:11:50.310Z,1.37
2018-08-06T03:14:26.719Z,1.07
2018-08-06T03:17:03.070Z,1.10
2018-08-06T03:19:39.393Z,0.83
2018-08-06T03:22:15.890Z,1.10
2018-08-06T03:24:52.352Z,1.50
2018-08-06T03:27:28.617Z,1.43
2018-08-06T03:30:07.032Z,1.17
2018-08-06T03:32:44.395Z,1.40
2018-08-06T03:35:21.091Z,1.27
2018-08-06T03:37:57.541Z,0.90
2018-08-06T03:40:33.831Z,1.43
2018-08-06T03:43:10.283Z,1.30
2018-08-06T03:45:46.681Z,1.20
2018-08-06T03:48:23.106Z,1.40
2018-08-06T03:50:59.381Z,1.33
2018-08-06T03:53:35.845Z,1.20
2018-08-06T03:56:12.189Z,1.93
2018-08-06T03:58:49.801Z,1.10
2018-08-06T04:01:26.081Z,1.57
2018-08-06T04:04:02.630Z,1.40
2018-08-06T04:06:39.008Z,1.00
2018-08-06T04:09:15.446Z,1.70
2018-08-06T04:11:51.669Z,1.40
2018-08-06T04:14:28.171Z,1.70
2018-08-06T04:17:04.634Z,1.83
2018-08-06T04:19:40.962Z,1.33
2018-08-06T04:22:17.780Z,1.50
2018-08-06T04:24:58.026Z,1.53
2018-08-06T04:27:34.732Z,2.03
2018-08-06T04:30:13.895Z,1.33
2018-08-06T04:32:50.339Z,1.50
2018-08-06T04:35:26.792Z,1.40
2018-08-06T04:38:03.126Z,1.80
2018-08-06T04:40:39.524Z,1.50
2018-08-06T04:43:15.973Z,1.57
2018-08-06T04:45:52.425Z,1.33
2018-08-06T04:48:28.863Z,1.50
2018-08-06T04:51:05.188Z,1.50
2018-08-06T04:53:41.504Z,1.53
2018-08-06T04:56:18.108Z,1.40
2018-08-06T04:58:54.638Z,1.70
2018-08-06T05:01:31.075Z,2.23
2018-08-06T05:04:07.788Z,1.40
2018-08-06T05:06:44.177Z,1.73
2018-08-06T05:09:23.675Z,1.40
2018-08-06T05:11:59.959Z,1.47
2018-08-06T05:14:37.495Z,1.50
2018-08-06T05:17:14.133Z,1.57
2018-08-06T05:19:50.599Z,1.77
2018-08-06T05:22:31.728Z,1.70
2018-08-06T05:25:08.020Z,1.63
2018-08-06T05:27:44.636Z,1.50
2018-08-06T05:30:21.310Z,1.33
2018-08-06T05:32:59.843Z,1.70
2018-08-06T05:35:36.250Z,1.50
2018-08-06T05:38:13.612Z,1.67
2018-08-06T05:40:50.319Z,1.97
2018-08-06T05:43:26.793Z,1.67
2018-08-06T05:46:03.232Z,1.40
2018-08-06T05:48:40.389Z,1.30
2018-08-06T05:51:17.073Z,1.70
2018-08-06T05:53:53.584Z,1.13
2018-08-06T05:56:30.408Z,1.50
2018-08-06T05:59:06.865Z,1.70
2018-08-06T06:01:43.390Z,1.60
2018-08-06T06:04:20.041Z,1.40
2018-08-06T06:06:56.383Z,1.63
2018-08-06T06:09:32.685Z,1.40
2018-08-06T06:12:09.132Z,1.23
2018-08-06T06:14:45.436Z,1.23
2018-08-06T06:17:21.940Z,1.30
2018-08-06T06:19:58.580Z,1.00
2018-08-06T06:22:35.089Z,1.40
2018-08-06T06:25:13.064Z,1.23
2018-08-06T06:27:49.320Z,1.37
2018-08-06T06:30:25.722Z,0.80
2018-08-06T06:33:01.985Z,1.33
2018-08-06T06:35:38.429Z,1.50
2018-08-06T06:38:14.914Z,0.97
2018-08-06T06:40:51.140Z,0.90
2018-08-06T06:43:28.352Z,1.30
2018-08-06T06:46:05.068Z,1.20
2018-08-06T06:48:41.569Z,1.10
2018-08-06T06:51:17.948Z,1.00
2018-08-06T06:53:54.222Z,1.03
2018-08-06T06:56:30.576Z,1.23
2018-08-06T06:59:07.528Z,1.30
2018-08-06T07:01:43.803Z,1.00
2018-08-06T07:04:20.225Z,1.03
2018-08-06T07:06:56.555Z,0.93
2018-08-06T07:09:32.843Z,1.73
2018-08-06T07:12:09.299Z,1.27
2018-08-06T07:14:45.688Z,1.37
2018-08-06T07:17:22.017Z,1.50
2018-08-06T07:19:58.512Z,1.60
2018-08-06T07:22:35.054Z,1.97
2018-08-06T07:25:12.281Z,1.00
2018-08-06T07:27:48.624Z,1.10
2018-08-06T07:30:24.975Z,1.33
2018-08-06T07:33:01.503Z,1.20
2018-08-06T07:35:37.914Z,1.30
2018-08-06T07:38:14.117Z,1.50
2018-08-06T07:40:50.571Z,1.67
2018-08-06T07:43:26.984Z,1.17
2018-08-06T07:46:03.420Z,1.37
2018-08-06T07:48:39.952Z,1.40
2018-08-06T07:51:16.221Z,1.20
2018-08-06T07:53:52.685Z,1.13
2018-08-06T07:56:29.168Z,1.60
2018-08-06T07:59:06.552Z,1.17
2018-08-06T08:01:43.010Z,1.10
2018-08-06T08:04:19.582Z,1.40
2018-08-06T08:06:55.931Z,1.27
2018-08-06T08:09:32.213Z,1.30
2018-08-06T08:12:08.490Z,1.13
2018-08-06T08:14:45.131Z,1.20
2018-08-06T08:17:21.734Z,1.10
2018-08-06T08:19:58.320Z,1.27
2018-08-06T08:22:34.676Z,1.33
2018-08-06T08:25:15.300Z,1.30
2018-08-06T08:27:51.831Z,1.23
2018-08-06T08:30:28.308Z,1.40
2018-08-06T08:33:04.694Z,1.00
2018-08-06T08:35:41.340Z,1.03
2018-08-06T08:38:17.772Z,1.50
2018-08-06T08:40:54.063Z,1.40
2018-08-06T08:43:30.573Z,1.27
2018-08-06T08:46:08.070Z,1.97
2018-08-06T08:48:44.528Z,1.67
2018-08-06T08:51:21.125Z,1.40
2018-08-06T08:53:57.536Z,1.33
2018-08-06T08:56:33.780Z,1.30
2018-08-06T08:59:10.149Z,1.60
2018-08-06T09:01:46.680Z,2.00
2018-08-06T09:04:23.110Z,1.60
2018-08-06T09:06:59.567Z,1.47
2018-08-06T09:09:35.955Z,1.70
2018-08-06T09:12:12.588Z,1.97
2018-08-06T09:14:49.160Z,1.83
2018-08-06T09:17:25.387Z,1.70
2018-08-06T09:20:01.822Z,1.50
2018-08-06T09:22:38.696Z,1.70
2018-08-06T09:25:15.384Z,1.37
2018-08-06T09:27:52.222Z,1.77
2018-08-06T09:30:28.819Z,1.60
2018-08-06T09:33:05.199Z,1.77
2018-08-06T09:35:41.640Z,1.50
2018-08-06T09:38:18.177Z,1.40
2018-08-06T09:40:54.480Z,1.47
2018-08-06T09:43:30.888Z,1.70
2018-08-06T09:46:07.623Z,1.93
2018-08-06T09:48:43.983Z,2.00
2018-08-06T09:51:20.421Z,1.50
2018-08-06T09:53:56.829Z,1.60
2018-08-06T09:56:33.293Z,1.60
2018-08-06T09:59:09.736Z,1.50
2018-08-06T10:01:51.227Z,1.50
2018-08-06T10:04:28.272Z,2.53
2018-08-06T10:07:04.602Z,1.30
2018-08-06T10:09:40.957Z,1.90
2018-08-06T10:12:17.405Z,1.70
2018-08-06T10:14:53.862Z,1.80
2018-08-06T10:17:30.124Z,1.37
2018-08-06T10:20:09.872Z,1.50
2018-08-06T10:22:46.812Z,1.40
2018-08-06T10:25:23.273Z,3.50
2018-08-06T10:27:59.694Z,1.60
2018-08-06T10:30:36.223Z,1.53
2018-08-06T10:33:12.709Z,1.47
2018-08-06T10:35:49.088Z,1.60
2018-08-06T10:38:25.476Z,2.00
2018-08-06T10:41:01.930Z,1.57
2018-08-06T10:43:38.288Z,1.80
2018-08-06T10:46:14.680Z,2.23
2018-08-06T10:48:50.911Z,1.70
2018-08-06T10:51:27.279Z,1.60
2018-08-06T10:54:03.660Z,1.90
2018-08-06T10:56:40.158Z,1.80
2018-08-06T10:59:16.600Z,2.03
2018-08-06T11:01:52.851Z,1.80
2018-08-06T11:04:29.144Z,2.40
2018-08-06T11:07:05.587Z,1.90
2018-08-06T11:09:42.146Z,1.90
2018-08-06T11:12:18.563Z,1.27
2018-08-06T11:14:54.971Z,1.50
2018-08-06T11:17:31.445Z,1.97
2018-08-06T11:20:10.125Z,1.83
2018-08-06T11:22:46.528Z,2.10
2018-08-06T11:25:23.642Z,2.07
2018-08-06T11:27:59.895Z,2.27
2018-08-06T11:30:39.152Z,1.83
2018-08-06T11:33:16.125Z,2.23
2018-08-06T11:35:53.341Z,2.03
2018-08-06T11:38:30.387Z,2.20
2018-08-06T11:41:06.654Z,1.90
2018-08-06T11:43:43.104Z,1.60
2018-08-06T11:46:19.471Z,2.23
2018-08-06T11:48:55.856Z,2.47
2018-08-06T11:51:32.149Z,2.40
2018-08-06T11:54:09.261Z,2.10
2018-08-06T11:56:45.707Z,2.37
2018-08-06T11:59:22.037Z,2.00
2018-08-06T12:01:58.372Z,2.00
2018-08-06T12:04:34.708Z,2.10
2018-08-06T12:07:11.345Z,2.17
2018-08-06T12:09:47.848Z,2.67
2018-08-06T12:12:25.427Z,1.90
2018-08-06T12:15:01.714Z,2.40
2018-08-06T12:17:39.690Z,2.50
2018-08-06T12:20:18.188Z,2.63
2018-08-06T12:22:54.311Z,2.07
2018-08-06T12:25:30.646Z,1.70
2018-08-06T12:28:07.163Z,1.90
2018-08-06T12:30:43.565Z,2.00
2018-08-06T12:33:19.939Z,1.90
2018-08-06T12:35:56.374Z,2.27
2018-08-06T12:38:48.442Z,2.20
2018-08-06T12:41:24.716Z,2.20
2018-08-06T12:44:00.966Z,1.90
2018-08-06T12:46:37.749Z,2.20
2018-08-06T12:49:14.171Z,1.90
2018-08-06T12:51:50.787Z,2.10
2018-08-06T12:54:27.200Z,2.17
2018-08-06T12:57:03.651Z,2.70
2018-08-06T12:59:40.262Z,2.40
2018-08-06T13:02:16.848Z,2.07
2018-08-06T13:04:53.233Z,2.70
2018-08-06T13:07:29.599Z,2.30
2018-08-06T13:10:06.674Z,2.63
2018-08-06T13:12:43.172Z,2.23
2018-08-06T13:15:19.547Z,2.63
2018-08-06T13:17:56.034Z,2.50
2018-08-06T13:20:32.474Z,2.33
2018-08-06T13:23:09.264Z,2.30
2018-08-06T13:25:45.660Z,2.50
2018-08-06T13:28:21.976Z,2.80
2018-08-06T13:30:58.435Z,2.23
2018-08-06T13:33:34.837Z,2.40
2018-08-06T13:36:11.482Z,2.57
2018-08-06T13:38:47.948Z,2.50
2018-08-06T13:41:24.440Z,2.27
2018-08-06T13:44:00.851Z,2.03
2018-08-06T13:46:37.279Z,2.70
2018-08-06T13:49:13.696Z,2.40
2018-08-06T13:51:50.097Z,2.53
2018-08-06T13:54:27.284Z,2.40
2018-08-06T13:57:03.643Z,2.73
2018-08-06T13:59:40.250Z,2.30
2018-08-06T14:02:16.604Z,2.60
2018-08-06T14:04:53.183Z,2.43
2018-08-06T14:07:29.630Z,2.33
2018-08-06T14:10:07.258Z,3.07
2018-08-06T14:12:43.708Z,2.50
2018-08-06T14:15:20.116Z,2.80
2018-08-06T14:17:56.476Z,2.63
2018-08-06T14:20:32.732Z,2.77
2018-08-06T14:23:10.162Z,2.80
2018-08-06T14:25:46.658Z,2.97
2018-08-06T14:28:22.803Z,2.43
2018-08-06T14:30:59.329Z,2.47
2018-08-06T14:33:35.575Z,2.73
2018-08-06T14:36:12.017Z,2.93
2018-08-06T14:38:48.398Z,3.10
2018-08-06T14:41:24.792Z,2.53
2018-08-06T14:44:01.220Z,3.40
2018-08-06T14:46:38.401Z,3.33
2018-08-06T14:49:14.656Z,3.30
2018-08-06T14:51:51.010Z,2.97
2018-08-06T14:54:26.914Z,3.23
2018-08-06T14:57:03.284Z,3.13
2018-08-06T14:59:39.861Z,3.03
2018-08-06T15:02:16.297Z,2.63
2018-08-06T15:04:52.650Z,2.60
2018-08-06T15:07:28.996Z,2.80
2018-08-06T15:10:07.268Z,3.10
2018-08-06T15:12:43.803Z,2.60
2018-08-06T15:15:20.315Z,3.23
2018-08-06T15:17:56.698Z,3.20
2018-08-06T15:20:33.046Z,2.77
2018-08-06T15:23:09.601Z,3.07
2018-08-06T15:25:45.883Z,3.33
2018-08-06T15:28:22.260Z,3.10
2018-08-06T15:30:58.635Z,3.40
2018-08-06T15:33:34.982Z,3.20
2018-08-06T15:36:11.613Z,3.10
2018-08-06T15:38:48.055Z,3.03
2018-08-06T15:41:24.498Z,3.43
2018-08-06T15:44:00.876Z,3.00
2018-08-06T15:46:37.432Z,3.10
2018-08-06T15:49:13.912Z,3.10
2018-08-06T15:51:50.379Z,2.80
2018-08-06T15:54:26.796Z,3.53
2018-08-06T15:57:03.235Z,3.10
2018-08-06T15:59:39.688Z,3.00
2018-08-06T16:02:16.060Z,3.10
2018-08-06T16:04:52.484Z,2.90
2018-08-06T16:07:28.867Z,3.37
2018-08-06T16:10:06.958Z,3.67
2018-08-06T16:12:43.561Z,3.30
2018-08-06T16:15:20.006Z,3.50
2018-08-06T16:17:56.386Z,3.10
2018-08-06T16:20:32.911Z,3.23
2018-08-06T16:23:10.155Z,3.57
2018-08-06T16:25:46.583Z,2.90
2018-08-06T16:28:23.056Z,3.10
2018-08-06T16:30:59.616Z,3.40
2018-08-06T16:33:35.995Z,3.40
2018-08-06T16:36:12.541Z,3.53
2018-08-06T16:38:48.931Z,2.83
2018-08-06T16:41:25.464Z,3.20
2018-08-06T16:44:01.796Z,3.20
2018-08-06T16:46:38.221Z,3.37
2018-08-06T16:49:14.524Z,5.10
2018-08-06T16:51:50.867Z,3.90
2018-08-06T16:54:27.311Z,3.60
2018-08-06T16:57:03.584Z,3.40
2018-08-06T16:59:40.178Z,3.80
2018-08-06T17:02:16.614Z,3.07
2018-08-06T17:04:53.013Z,2.97
2018-08-06T17:07:29.460Z,3.60
2018-08-06T17:10:07.160Z,3.40
2018-08-06T17:12:44.657Z,2.70
2018-08-06T17:15:21.731Z,3.07
2018-08-06T17:17:58.139Z,3.27
2018-08-06T17:20:34.600Z,2.90
2018-08-06T17:23:11.101Z,3.60
2018-08-06T17:25:47.422Z,3.67
2018-08-06T17:28:23.827Z,2.93
2018-08-06T17:31:00.130Z,3.23
2018-08-06T17:33:36.504Z,4.20
2018-08-06T17:36:12.878Z,2.90
2018-08-06T17:38:49.341Z,3.33
2018-08-06T17:41:25.802Z,3.33
2018-08-06T17:46:47.581Z,5.30
2018-08-06T17:49:23.926Z,3.53
2018-08-06T17:52:00.400Z,3.40
2018-08-06T17:54:36.819Z,3.70
2018-08-06T17:57:13.452Z,3.10
2018-08-06T17:59:49.717Z,3.10
2018-08-06T18:02:26.011Z,3.80
2018-08-06T18:05:02.287Z,3.23
2018-08-06T18:07:38.969Z,3.63
2018-08-06T18:10:16.648Z,2.97
2018-08-06T18:12:53.165Z,3.60
2018-08-06T18:15:29.508Z,5.20
2018-08-06T18:18:06.714Z,5.30
2018-08-06T18:20:43.136Z,6.87
2018-08-06T18:23:25.189Z,78.97
2018-08-06T18:26:01.579Z,58.33
2018-08-06T18:28:38.136Z,11.53
2018-08-06T18:31:14.544Z,8.53
2018-08-06T18:33:51.394Z,13.80
2018-08-06T18:36:27.874Z,8.27
2018-08-06T18:39:06.458Z,9.83
2018-08-06T18:41:43.122Z,10.40
2018-08-06T18:44:19.525Z,20.53
2018-08-06T18:46:55.952Z,24.30
2018-08-06T18:49:32.308Z,15.67
2018-08-06T18:52:08.773Z,6.77
2018-08-06T18:54:45.367Z,3.57
2018-08-06T18:57:21.707Z,3.50
2018-08-06T18:59:58.112Z,3.40
2018-08-06T19:02:34.482Z,3.50
2018-08-06T19:05:11.504Z,4.03
2018-08-06T19:07:48.011Z,3.53
2018-08-06T19:10:24.441Z,3.00
2018-08-06T19:13:06.073Z,2.73
2018-08-06T19:15:42.748Z,2.60
2018-08-06T19:18:24.383Z,3.27
2018-08-06T19:21:00.867Z,3.43
2018-08-06T19:23:37.412Z,4.17
2018-08-06T19:26:13.904Z,3.53
2018-08-06T19:28:50.247Z,3.47
2018-08-06T19:31:27.991Z,4.13
2018-08-06T19:34:04.440Z,4.03
2018-08-06T19:36:46.130Z,4.27
2018-08-06T19:39:22.579Z,3.93
2018-08-06T19:41:59.028Z,3.50
2018-08-06T19:44:35.315Z,4.50
2018-08-06T19:47:11.808Z,3.40
2018-08-06T19:49:53.888Z,3.80
2018-08-06T19:52:30.206Z,4.00
2018-08-06T19:55:12.411Z,4.07
2018-08-06T19:57:48.908Z,4.03
2018-08-06T20:00:25.284Z,3.67
2018-08-06T20:03:01.724Z,4.10
2018-08-06T20:05:38.272Z,3.93
2018-08-06T20:08:14.959Z,4.00
2018-08-06T20:10:51.631Z,5.13
2018-08-06T20:13:28.454Z,4.47
2018-08-06T20:16:05.145Z,3.50
2018-08-06T20:18:42.167Z,3.60
2018-08-06T20:21:18.828Z,3.40
2018-08-06T20:23:55.306Z,3.97
2018-08-06T20:26:31.678Z,3.83
2018-08-06T20:29:08.107Z,3.53
2018-08-06T20:31:44.775Z,4.50
2018-08-06T20:34:21.085Z,4.03
2018-08-06T20:36:57.456Z,3.70
2018-08-06T20:39:33.981Z,3.90
2018-08-06T20:42:10.512Z,4.10
2018-08-06T20:44:46.832Z,3.73
2018-08-06T20:47:23.129Z,3.70
2018-08-06T20:49:59.711Z,4.33
2018-08-06T20:52:36.184Z,4.43
2018-08-06T20:55:12.950Z,4.53
2018-08-06T20:57:49.852Z,4.50
2018-08-06T21:00:26.803Z,4.60
2018-08-06T21:03:03.155Z,5.43
2018-08-06T21:05:39.636Z,5.70
2018-08-06T21:08:16.040Z,5.90
2018-08-06T21:10:52.428Z,6.77
2018-08-06T21:13:28.696Z,6.57
2018-08-06T21:16:05.123Z,5.83
2018-08-06T21:18:41.685Z,5.13
2018-08-06T21:21:18.215Z,4.20
2018-08-06T21:23:57.879Z,6.50
2018-08-06T21:26:34.264Z,4.23
2018-08-06T21:29:10.833Z,4.03
2018-08-06T21:31:47.312Z,4.30
2018-08-06T21:34:23.791Z,4.70
2018-08-06T21:37:00.227Z,3.77
2018-08-06T21:39:36.460Z,4.10
2018-08-06T21:42:13.137Z,3.10
2018-08-06T21:44:49.565Z,3.63
2018-08-06T21:47:25.902Z,4.37
2018-08-06T21:50:02.346Z,3.67
2018-08-06T21:52:38.928Z,4.27
2018-08-06T21:55:15.464Z,3.60
2018-08-06T21:57:51.789Z,3.63
2018-08-06T22:00:42.828Z,4.10
2018-08-06T22:03:19.387Z,3.80
2018-08-06T22:05:55.632Z,4.27
2018-08-06T22:08:31.890Z,4.03
2018-08-06T22:11:08.665Z,4.13
2018-08-06T22:13:45.260Z,3.67
2018-08-06T22:16:21.608Z,4.17
2018-08-06T22:18:57.985Z,3.73
2018-08-06T22:21:34.459Z,3.60
2018-08-06T22:24:10.830Z,3.03
2018-08-06T22:26:47.349Z,3.57
2018-08-06T22:29:23.711Z,4.00
2018-08-06T22:32:00.052Z,4.47
2018-08-06T22:34:36.460Z,3.27
2018-08-06T22:37:13.243Z,3.60
2018-08-06T22:39:49.712Z,3.40
2018-08-06T22:42:25.939Z,3.10
2018-08-06T22:45:02.391Z,3.80
2018-08-06T22:47:38.881Z,3.47
2018-08-06T22:50:15.374Z,3.10
2018-08-06T22:52:51.772Z,4.13
2018-08-06T22:55:27.942Z,3.70
2018-08-06T22:58:04.341Z,4.20
2018-08-06T23:00:41.573Z,3.67
2018-08-06T23:03:17.977Z,3.37
2018-08-06T23:05:54.236Z,4.60
2018-08-06T23:08:30.623Z,3.87
2018-08-06T23:11:07.667Z,3.40
2018-08-06T23:13:44.029Z,3.50
2018-08-06T23:16:20.358Z,3.87
2018-08-06T23:18:56.731Z,3.70
2018-08-06T23:21:33.096Z,3.47
2018-08-06T23:24:09.481Z,3.00
2018-08-06T23:26:45.868Z,3.47
2018-08-06T23:29:22.228Z,3.27
2018-08-06T23:31:58.620Z,3.93
2018-08-06T23:34:35.018Z,3.60
2018-08-06T23:37:11.509Z,3.60
2018-08-06T23:39:47.876Z,3.30
2018-08-06T23:42:24.151Z,3.33
2018-08-06T23:45:00.479Z,2.97
2018-08-06T23:47:37.384Z,3.83
2018-08-06T23:50:19.424Z,4.00
2018-08-06T23:52:55.774Z,3.40
2018-08-06T23:55:34.078Z,4.20
2018-08-06T23:58:10.372Z,3.07
